Time;durP1;ratioP1;P1;durP2;ratioP2;P2;SDS_P1;SDS_P2;PMS_P1;PMS_P2;Temp;Humidity;BMP_temperature;BMP_pressure;BME280_temperature;BME280_humidity;BME280_pressure;Samples;Min_cycle;Max_cycle;Signal;HPM_P1;HPM_P2
2022/09/18 00:01:23;;;;;;;;;;;;;;;11.79;100.00;97597.88;5083884;28;20529;-80
2022/09/18 00:03:50;;;;;;;;;;;;;;;11.80;100.00;97602.94;5077649;28;19924;-82
2022/09/18 00:06:17;;;;;;;;;;;;;;;11.79;100.00;97593.31;5053821;28;20010;-84
2022/09/18 00:08:44;;;;;;;;;;;;;;;11.70;100.00;97603.00;5071400;28;19939;-85
2022/09/18 00:11:11;;;;;;;;;;;;;;;11.72;100.00;97600.88;5053247;28;20312;-82
2022/09/18 00:13:38;;;;;;;;;;;;;;;11.65;100.00;97605.69;5066310;28;19928;-80
2022/09/18 00:16:07;;;;;;;;;;;;;;;11.62;100.00;97611.59;5069409;28;20686;-81
2022/09/18 00:18:33;;;;;;;;;;;;;;;11.45;100.00;97611.13;5068453;28;19950;-81
2022/09/18 00:21:02;;;;;;;;;;;;;;;11.50;100.00;97619.16;5070900;28;19924;-82
2022/09/18 00:23:29;;;;;;;;;;;;;;;11.53;100.00;97617.78;5078632;28;20013;-82
2022/09/18 00:25:55;;;;;;;;;;;;;;;11.40;100.00;97632.56;5062194;28;19997;-81
2022/09/18 00:28:21;;;;;;;;;;;;;;;11.48;100.00;97620.50;5042643;28;20409;-81
2022/09/18 00:30:48;;;;;;;;;;;;;;;11.59;100.00;97630.88;5064635;28;19931;-82
2022/09/18 00:33:15;;;;;;;;;;;;;;;11.39;100.00;97621.06;5068285;28;19924;-80
2022/09/18 00:35:43;;;;;;;;;;;;;;;11.39;100.00;97628.28;5070192;28;19924;-83
2022/09/18 00:38:09;;;;;;;;;;;;;;;11.46;100.00;97628.78;5073611;28;20549;-83
2022/09/18 00:40:35;;;;;;;;;;;;;;;11.49;100.00;97630.91;5045479;28;19928;-82
2022/09/18 00:43:16;;;;;;;;;;;;;;;11.53;100.00;97626.63;5048280;28;19925;-81
2022/09/18 00:45:42;;;;;;;;;;;;;;;11.16;100.00;97631.59;5066564;28;19928;-82
2022/09/18 00:48:08;;;;;;;;;;;;;;;11.27;100.00;97630.47;5070601;28;20031;-82
2022/09/18 00:50:36;;;;;;;;;;;;;;;11.28;100.00;97626.75;5045856;28;19933;-83
2022/09/18 00:53:04;;;;;;;;;;;;;;;11.22;100.00;97627.84;5071508;28;19925;-81
2022/09/18 00:55:33;;;;;;;;;;;;;;;11.41;100.00;97630.69;5085065;28;19928;-83
2022/09/18 00:58:00;;;;;;;;;;;;;;;11.29;100.00;97636.38;5084289;28;19935;-83
2022/09/18 01:00:28;;;;;;;;;;;;;;;11.20;100.00;97635.34;5072183;28;19929;-83
2022/09/18 01:02:54;;;;;;;;;;;;;;;11.25;100.00;97633.44;5089468;28;19957;-82
2022/09/18 01:05:26;;;;;;;;;;;;;;;11.31;100.00;97643.03;5085248;28;19928;-83
2022/09/18 01:08:06;;;;;;;;;;;;;;;11.46;100.00;97650.19;5088797;28;19924;-83
2022/09/18 01:10:41;;;;;;;;;;;;;;;11.50;100.00;97645.09;5074168;28;20004;-82
2022/09/18 01:13:11;;;;;;;;;;;;;;;11.52;100.00;97646.41;5079985;28;19924;-84
2022/09/18 01:15:41;;;;;;;;;;;;;;;11.35;100.00;97652.13;5079069;28;19951;-83
2022/09/18 01:18:10;;;;;;;;;;;;;;;11.38;100.00;97654.25;5086931;28;20018;-84
2022/09/18 01:20:54;;;;;;;;;;;;;;;11.20;100.00;97646.03;5081871;28;19929;-83
2022/09/18 01:23:37;;;;;;;;;;;;;;;11.19;100.00;97639.88;5090482;28;19928;-83
2022/09/18 01:26:07;;;;;;;;;;;;;;;11.32;100.00;97647.31;5089132;28;19928;-81
2022/09/18 01:28:38;;;;;;;;;;;;;;;11.26;100.00;97650.28;5089897;28;19935;-81
2022/09/18 01:31:07;;;;;;;;;;;;;;;11.32;100.00;97647.31;5083573;28;19925;-82
2022/09/18 01:33:40;;;;;;;;;;;;;;;11.41;100.00;97647.53;5086864;28;20011;-81
2022/09/18 01:36:08;;;;;;;;;;;;;;;11.25;100.00;97652.16;5060431;28;20073;-84
2022/09/18 01:38:39;;;;;;;;;;;;;;;11.20;100.00;97646.81;5085355;28;19928;-82
2022/09/18 01:41:09;;;;;;;;;;;;;;;11.36;100.00;97644.88;5075197;28;19935;-81
2022/09/18 01:43:38;;;;;;;;;;;;;;;11.41;100.00;97647.53;5072626;28;19954;-82
2022/09/18 01:46:08;;;;;;;;;;;;;;;11.40;100.00;97640.59;5061447;28;19958;-81
2022/09/18 01:48:37;;;;;;;;;;;;;;;11.32;100.00;97641.16;5080495;28;19924;-80
2022/09/18 01:51:05;;;;;;;;;;;;;;;11.37;100.00;97657.19;5074600;28;19929;-80
2022/09/18 01:53:33;;;;;;;;;;;;;;;11.31;100.00;97658.28;5077448;28;19936;-82
2022/09/18 01:56:02;;;;;;;;;;;;;;;11.39;100.00;97655.81;5069456;28;20011;-81
2022/09/18 01:58:32;;;;;;;;;;;;;;;11.29;100.00;97655.09;5080789;28;19928;-80
2022/09/18 02:01:03;;;;;;;;;;;;;;;11.43;100.00;97656.06;5072482;28;19924;-81
2022/09/18 02:03:31;;;;;;;;;;;;;;;11.48;100.00;97658.72;5075083;28;20040;-81
2022/09/18 02:06:00;;;;;;;;;;;;;;;11.56;100.00;97650.16;5078061;28;19930;-82
2022/09/18 02:08:30;;;;;;;;;;;;;;;11.44;100.00;97654.22;5088588;28;19934;-81
2022/09/18 02:10:59;;;;;;;;;;;;;;;11.57;100.00;97658.97;5070358;28;19929;-81
2022/09/18 02:13:28;;;;;;;;;;;;;;;11.48;100.00;97652.59;5071717;28;19935;-81
2022/09/18 02:16:00;;;;;;;;;;;;;;;11.52;100.00;97648.28;5067932;28;19931;-81
2022/09/18 02:18:30;;;;;;;;;;;;;;;11.42;100.00;97648.34;5070038;28;19951;-82
2022/09/18 02:20:57;;;;;;;;;;;;;;;11.52;100.00;97650.94;5053775;28;20582;-81
2022/09/18 02:23:23;;;;;;;;;;;;;;;11.55;100.00;97651.22;5080745;28;19935;-81
2022/09/18 02:25:51;;;;;;;;;;;;;;;11.55;100.00;97645.06;5071874;28;19930;-81
2022/09/18 02:28:20;;;;;;;;;;;;;;;11.44;100.00;97647.00;5068171;28;20628;-81
2022/09/18 02:30:47;;;;;;;;;;;;;;;11.56;100.00;97647.47;5070796;28;19928;-82
2022/09/18 02:33:27;;;;;;;;;;;;;;;11.40;100.00;97640.59;5078384;28;19928;-83
2022/09/18 02:36:01;;;;;;;;;;;;;;;11.33;100.00;97640.88;5073131;28;19928;-82
2022/09/18 02:38:31;;;;;;;;;;;;;;;11.29;100.00;97642.53;5081645;28;19935;-82
2022/09/18 02:40:59;;;;;;;;;;;;;;;11.28;100.00;97642.78;5067791;28;20423;-81
2022/09/18 02:43:34;;;;;;;;;;;;;;;11.24;100.00;97642.53;5055546;28;19928;-81
2022/09/18 02:46:05;;;;;;;;;;;;;;;11.28;100.00;97642.78;5080727;28;19929;-81
2022/09/18 02:48:46;;;;;;;;;;;;;;;11.39;100.00;97630.97;5070617;28;20410;-81
2022/09/18 02:51:18;;;;;;;;;;;;;;;11.39;100.00;97639.78;5050858;28;19978;-82
2022/09/18 02:53:47;;;;;;;;;;;;;;;11.25;100.00;97641.47;5068712;28;19929;-82
2022/09/18 02:56:17;;;;;;;;;;;;;;;11.27;100.00;97638.50;5061242;28;19924;-80
2022/09/18 02:58:46;;;;;;;;;;;;;;;11.29;100.00;97631.03;5077926;28;19985;-80
2022/09/18 03:01:14;;;;;;;;;;;;;;;11.23;100.00;97626.78;5067398;28;19939;-81
2022/09/18 03:03:40;;;;;;;;;;;;;;;11.25;100.00;97635.31;5072191;28;19928;-81
2022/09/18 03:06:07;;;;;;;;;;;;;;;11.22;100.00;97631.31;5070934;28;19934;-82
2022/09/18 03:08:35;;;;;;;;;;;;;;;11.22;100.00;97639.34;5072237;28;19928;-82
2022/09/18 03:11:02;;;;;;;;;;;;;;;11.29;100.00;97633.69;5052818;28;20026;-82
2022/09/18 03:13:31;;;;;;;;;;;;;;;11.37;100.00;97638.47;5066009;28;20009;-81
2022/09/18 03:15:57;;;;;;;;;;;;;;;11.28;100.00;97637.44;5082938;28;19928;-82
2022/09/18 03:18:23;;;;;;;;;;;;;;;11.35;100.00;97632.59;5079348;28;20415;-81
2022/09/18 03:20:50;;;;;;;;;;;;;;;11.26;100.00;97627.00;5068174;28;20429;-81
2022/09/18 03:23:16;;;;;;;;;;;;;;;11.21;100.00;97636.91;5055438;28;19928;-81
2022/09/18 03:25:44;;;;;;;;;;;;;;;11.20;100.00;97640.69;5058619;28;19934;-81
2022/09/18 03:28:10;;;;;;;;;;;;;;;11.18;100.00;97632.13;5065036;28;19928;-82
2022/09/18 03:30:36;;;;;;;;;;;;;;;11.15;100.00;97632.66;5057462;28;19928;-81
2022/09/18 03:33:02;;;;;;;;;;;;;;;11.17;100.00;97631.31;5061612;28;19928;-81
2022/09/18 03:35:29;;;;;;;;;;;;;;;11.34;100.00;97631.78;5064173;28;19924;-83
2022/09/18 03:37:55;;;;;;;;;;;;;;;11.36;100.00;97634.19;5071627;28;19936;-82
2022/09/18 03:40:22;;;;;;;;;;;;;;;11.26;100.00;97629.66;5066940;28;19932;-83
2022/09/18 03:42:49;;;;;;;;;;;;;;;11.36;100.00;97634.19;5078816;28;20383;-83
2022/09/18 03:45:16;;;;;;;;;;;;;;;11.38;100.00;97627.50;5085157;28;19924;-81
2022/09/18 03:47:42;;;;;;;;;;;;;;;11.33;100.00;97627.50;5086979;28;20463;-82
2022/09/18 03:50:10;;;;;;;;;;;;;;;11.34;100.00;97634.47;5043971;28;19939;-84
2022/09/18 03:52:36;;;;;;;;;;;;;;;11.32;100.00;97633.94;5062484;28;19977;-81
2022/09/18 03:55:02;;;;;;;;;;;;;;;11.23;100.00;97634.78;5058633;28;19928;-82
2022/09/18 03:57:29;;;;;;;;;;;;;;;11.22;100.00;97649.22;5059489;28;19994;-81
2022/09/18 03:59:57;;;;;;;;;;;;;;;11.26;100.00;97636.91;5068548;28;19959;-82
2022/09/18 04:02:23;;;;;;;;;;;;;;;11.16;100.00;97634.28;5078335;28;19923;-81
2022/09/18 04:04:50;;;;;;;;;;;;;;;11.13;100.00;97632.16;5065497;28;20028;-81
2022/09/18 04:07:17;;;;;;;;;;;;;;;11.20;100.00;97638.00;5068346;28;20376;-81
2022/09/18 04:09:43;;;;;;;;;;;;;;;11.23;100.00;97634.78;5077740;28;19924;-81
2022/09/18 04:12:10;;;;;;;;;;;;;;;11.02;100.00;97634.03;5072081;28;19990;-81
2022/09/18 04:14:36;;;;;;;;;;;;;;;11.10;100.00;97630.03;5080694;28;20378;-81
2022/09/18 04:17:04;;;;;;;;;;;;;;;11.11;100.00;97636.97;5064102;28;19929;-82
2022/09/18 04:19:30;;;;;;;;;;;;;;;11.12;100.00;97635.88;5082119;28;19924;-82
2022/09/18 04:21:57;;;;;;;;;;;;;;;11.21;100.00;97631.56;5073301;28;19932;-82
2022/09/18 04:24:23;;;;;;;;;;;;;;;11.26;100.00;97642.25;5079538;28;19929;-81
2022/09/18 04:26:49;;;;;;;;;;;;;;;11.12;100.00;97642.03;5057593;28;20371;-82
2022/09/18 04:29:16;;;;;;;;;;;;;;;11.13;100.00;97642.84;5080925;28;19932;-81
2022/09/18 04:31:42;;;;;;;;;;;;;;;11.25;100.00;97643.31;5073477;28;19924;-82
2022/09/18 04:34:10;;;;;;;;;;;;;;;11.15;100.00;97654.84;5080130;28;20803;-82
2022/09/18 04:36:36;;;;;;;;;;;;;;;11.28;100.00;97646.25;5083484;28;19932;-82
2022/09/18 04:39:03;;;;;;;;;;;;;;;11.35;100.00;97643.28;5072250;28;19931;-82
2022/09/18 04:41:29;;;;;;;;;;;;;;;11.06;100.00;97639.66;5074312;28;20027;-82
2022/09/18 04:43:55;;;;;;;;;;;;;;;11.23;100.00;97648.16;5081626;28;19928;-82
2022/09/18 04:46:21;;;;;;;;;;;;;;;11.28;100.00;97640.09;5083500;28;19924;-81
2022/09/18 04:48:48;;;;;;;;;;;;;;;11.36;100.00;97644.88;5083937;28;20286;-82
2022/09/18 04:51:16;;;;;;;;;;;;;;;11.33;100.00;97640.88;5093137;28;19935;-81
2022/09/18 04:53:42;;;;;;;;;;;;;;;11.33;100.00;97642.75;5079371;28;19931;-83
2022/09/18 04:56:09;;;;;;;;;;;;;;;11.31;100.00;97644.91;5070433;28;20709;-82
2022/09/18 04:58:35;;;;;;;;;;;;;;;11.24;100.00;97637.19;5091296;28;19924;-82
2022/09/18 05:01:01;;;;;;;;;;;;;;;11.26;100.00;97642.25;5084794;28;19928;-82
2022/09/18 05:03:28;;;;;;;;;;;;;;;11.31;100.00;97642.22;5086227;28;19932;-82
2022/09/18 05:05:55;;;;;;;;;;;;;;;11.18;100.00;97643.63;5089428;28;19931;-81
2022/09/18 05:08:22;;;;;;;;;;;;;;;11.15;100.00;97646.03;5077633;28;20490;-81
2022/09/18 05:10:49;;;;;;;;;;;;;;;11.23;100.00;97656.19;5093886;28;19928;-81
2022/09/18 05:13:15;;;;;;;;;;;;;;;11.14;100.00;97652.47;5088532;28;20405;-83
2022/09/18 05:15:41;;;;;;;;;;;;;;;10.98;100.00;97645.56;5095765;28;19925;-81
2022/09/18 05:18:08;;;;;;;;;;;;;;;11.09;100.00;97649.78;5079095;28;19928;-82
2022/09/18 05:20:35;;;;;;;;;;;;;;;11.07;100.00;97652.75;5073718;28;20367;-82
2022/09/18 05:23:01;;;;;;;;;;;;;;;11.17;100.00;97657.25;5073287;28;19924;-83
2022/09/18 05:25:30;;;;;;;;;;;;;;;11.20;100.00;97660.16;5072877;28;19931;-81
2022/09/18 05:27:57;;;;;;;;;;;;;;;11.32;100.00;97657.22;5073783;28;20415;-82
2022/09/18 05:30:24;;;;;;;;;;;;;;;11.32;100.00;97655.34;5069886;28;19936;-83
2022/09/18 05:32:54;;;;;;;;;;;;;;;11.42;100.00;97661.72;5070877;28;19924;-86
2022/09/18 05:35:21;;;;;;;;;;;;;;;11.48;100.00;97663.28;5074156;28;19924;-83
2022/09/18 05:37:49;;;;;;;;;;;;;;;11.51;100.00;97670.75;5069952;28;19959;-83
2022/09/18 05:40:15;;;;;;;;;;;;;;;11.33;100.00;97662.25;5102333;28;19971;-84
2022/09/18 05:42:46;;;;;;;;;;;;;;;11.39;100.00;97669.19;5090305;28;19924;-83
2022/09/18 05:45:12;;;;;;;;;;;;;;;11.42;100.00;97675.09;5082395;28;20439;-82
2022/09/18 05:47:39;;;;;;;;;;;;;;;11.33;100.00;97672.16;5066094;28;20110;-83
2022/09/18 05:50:06;;;;;;;;;;;;;;;11.26;100.00;97672.44;5073366;28;20323;-81
2022/09/18 05:52:32;;;;;;;;;;;;;;;11.36;100.00;97682.31;5071471;28;19923;-81
2022/09/18 05:54:58;;;;;;;;;;;;;;;11.36;100.00;97671.59;5068948;28;19928;-83
2022/09/18 05:57:24;;;;;;;;;;;;;;;11.32;100.00;97678.59;5083833;28;19928;-81
2022/09/18 05:59:52;;;;;;;;;;;;;;;11.20;100.00;97678.09;5066411;28;19934;-81
2022/09/18 06:02:19;;;;;;;;;;;;;;;11.24;100.00;97682.63;5070893;28;20005;-82
2022/09/18 06:04:45;;;;;;;;;;;;;;;11.41;100.00;97681.50;5064637;28;20398;-82
2022/09/18 06:07:14;;;;;;;;;;;;;;;11.54;100.00;97680.91;5068691;28;19933;-82
2022/09/18 06:09:40;;;;;;;;;;;;;;;11.59;100.00;97681.69;5074500;28;19928;-82
2022/09/18 06:12:07;;;;;;;;;;;;;;;11.35;100.00;97678.06;5081265;28;19924;-84
2022/09/18 06:14:33;;;;;;;;;;;;;;;11.21;100.00;97674.34;5057710;28;19928;-82
2022/09/18 06:17:01;;;;;;;;;;;;;;;11.39;100.00;97687.91;5058930;28;19925;-82
2022/09/18 06:19:27;;;;;;;;;;;;;;;11.38;100.00;97685.53;5071708;28;20668;-83
2022/09/18 06:21:54;;;;;;;;;;;;;;;11.33;100.00;97677.50;5059951;28;19935;-82
2022/09/18 06:24:20;;;;;;;;;;;;;;;11.36;100.00;97682.31;4995078;28;1760174;-82
2022/09/18 06:26:48;;;;;;;;;;;;;;;11.35;100.00;97686.88;5067275;28;19924;-82
2022/09/18 06:29:14;;;;;;;;;;;;;;;11.35;100.00;97681.53;5071481;28;19931;-81
2022/09/18 06:31:40;;;;;;;;;;;;;;;11.35;100.00;97686.88;5074268;28;20055;-82
2022/09/18 06:34:08;;;;;;;;;;;;;;;11.39;100.00;97681.75;5060444;28;20408;-82
2022/09/18 06:36:35;;;;;;;;;;;;;;;11.43;100.00;97688.16;5062966;28;20018;-82
2022/09/18 06:39:01;;;;;;;;;;;;;;;11.38;100.00;97685.53;5050695;28;19924;-81
2022/09/18 06:41:27;;;;;;;;;;;;;;;11.37;100.00;97689.25;5060677;28;19929;-82
2022/09/18 06:43:54;;;;;;;;;;;;;;;11.28;100.00;97696.25;5076257;28;19928;-83
2022/09/18 06:46:20;;;;;;;;;;;;;;;11.37;100.00;97689.25;5060018;28;19939;-83
2022/09/18 06:48:47;;;;;;;;;;;;;;;11.29;100.00;97681.81;5071563;28;19930;-83
2022/09/18 06:51:15;;;;;;;;;;;;;;;11.31;100.00;97695.69;5070988;28;19929;-83
2022/09/18 06:53:41;;;;;;;;;;;;;;;11.43;100.00;97698.06;5074939;28;19931;-82
2022/09/18 06:56:08;;;;;;;;;;;;;;;11.50;100.00;97696.69;5041436;28;19928;-82
2022/09/18 06:58:34;;;;;;;;;;;;;;;11.56;100.00;97692.94;5065728;28;20792;-81
2022/09/18 07:01:00;;;;;;;;;;;;;;;11.53;100.00;97693.47;5071563;28;19943;-82
2022/09/18 07:03:27;;;;;;;;;;;;;;;11.51;100.00;97695.63;5085463;28;20026;-83
2022/09/18 07:05:53;;;;;;;;;;;;;;;11.48;100.00;97704.19;5064460;28;20011;-82
2022/09/18 07:08:21;;;;;;;;;;;;;;;11.50;100.00;97704.72;5075926;28;19934;-82
2022/09/18 07:10:47;;;;;;;;;;;;;;;11.51;100.00;97705.53;5073826;28;19924;-82
2022/09/18 07:13:13;;;;;;;;;;;;;;;11.49;100.00;97705.78;5068279;28;19928;-81
2022/09/18 07:15:39;;;;;;;;;;;;;;;11.49;100.00;97713.00;5075366;28;19928;-82
2022/09/18 07:18:06;;;;;;;;;;;;;;;11.43;100.00;97706.06;5063356;28;19924;-82
2022/09/18 07:20:33;;;;;;;;;;;;;;;11.39;100.00;97711.16;5067467;28;20562;-81
2022/09/18 07:23:00;;;;;;;;;;;;;;;11.47;100.00;97707.13;5063384;28;20307;-81
2022/09/18 07:25:29;;;;;;;;;;;;;;;11.50;100.00;97710.06;5060246;28;19928;-82
2022/09/18 07:27:56;;;;;;;;;;;;;;;11.39;100.00;97711.97;5048708;28;19924;-81
2022/09/18 07:30:22;;;;;;;;;;;;;;;11.31;100.00;97711.75;5069737;28;19956;-82
2022/09/18 07:32:48;;;;;;;;;;;;;;;11.57;100.00;97721.28;5071513;28;19929;-83
2022/09/18 07:35:15;;;;;;;;;;;;;;;11.37;100.00;97718.66;5071906;28;19928;-82
2022/09/18 07:37:41;;;;;;;;;;;;;;;11.28;100.00;97717.63;5077065;28;19939;-81
2022/09/18 07:40:08;;;;;;;;;;;;;;;11.44;100.00;97713.03;5055233;28;19924;-82
2022/09/18 07:42:36;;;;;;;;;;;;;;;11.45;100.00;97720.78;5090005;28;19989;-82
2022/09/18 07:45:02;;;;;;;;;;;;;;;11.47;100.00;97717.84;5089876;28;19943;-82
2022/09/18 07:47:28;;;;;;;;;;;;;;;11.54;100.00;97724.50;5063102;28;20469;-82
2022/09/18 07:49:55;;;;;;;;;;;;;;;11.64;100.00;97727.13;5068467;28;19924;-83
2022/09/18 07:52:21;;;;;;;;;;;;;;;11.39;100.00;97722.66;5074781;28;19935;-83
2022/09/18 07:54:47;;;;;;;;;;;;;;;11.58;100.00;97722.06;5068928;28;19998;-83
2022/09/18 07:57:14;;;;;;;;;;;;;;;11.41;100.00;97721.59;5078629;28;20021;-82
2022/09/18 07:59:41;;;;;;;;;;;;;;;11.43;100.00;97722.94;5061487;28;19928;-81
2022/09/18 08:02:08;;;;;;;;;;;;;;;11.63;100.00;97727.41;5076385;28;19935;-82
2022/09/18 08:04:34;;;;;;;;;;;;;;;11.61;100.00;97725.00;5089212;28;19934;-82
2022/09/18 08:07:02;;;;;;;;;;;;;;;11.67;100.00;97725.75;5066798;28;20418;-81
2022/09/18 08:09:29;;;;;;;;;;;;;;;11.74;100.00;97729.78;5089092;28;19924;-82
2022/09/18 08:11:56;;;;;;;;;;;;;;;11.57;100.00;97723.16;5087470;28;20272;-83
2022/09/18 08:14:22;;;;;;;;;;;;;;;11.68;100.00;97728.19;5100582;28;19927;-83
2022/09/18 08:16:50;;;;;;;;;;;;;;;11.53;100.00;97725.56;5105217;28;19924;-83
2022/09/18 08:19:16;;;;;;;;;;;;;;;11.54;100.00;97735.19;5073138;28;19924;-82
2022/09/18 08:21:43;;;;;;;;;;;;;;;11.68;100.00;97732.72;5060449;28;19924;-82
2022/09/18 08:24:09;;;;;;;;;;;;;;;11.65;100.00;97728.72;5071087;28;19924;-83
2022/09/18 08:26:37;;;;;;;;;;;;;;;11.69;100.00;97729.00;5070894;28;19924;-81
2022/09/18 08:29:03;;;;;;;;;;;;;;;11.60;100.00;97736.78;5054881;28;20406;-82
2022/09/18 08:31:30;;;;;;;;;;;;;;;11.62;100.00;97723.13;5073125;28;19935;-81
2022/09/18 08:33:58;;;;;;;;;;;;;;;11.49;100.00;97723.69;5066781;28;20603;-81
2022/09/18 08:36:24;;;;;;;;;;;;;;;11.41;100.00;97730.44;5082857;28;19934;-82
2022/09/18 08:38:52;;;;;;;;;;;;;;;11.56;100.00;97730.38;5069724;28;19932;-81
2022/09/18 08:41:23;;;;;;;;;;;;;;;11.61;100.00;97725.00;5083585;28;19930;-82
2022/09/18 08:43:56;;;;;;;;;;;;;;;11.57;100.00;97720.47;5071517;28;20409;-82
2022/09/18 08:46:25;;;;;;;;;;;;;;;11.74;100.00;97727.13;5063018;28;20019;-82
2022/09/18 08:48:56;;;;;;;;;;;;;;;11.73;100.00;97717.47;5075535;28;19934;-81
2022/09/18 08:51:27;;;;;;;;;;;;;;;11.62;100.00;97720.44;5067327;28;20009;-82
2022/09/18 08:53:54;;;;;;;;;;;;;;;11.64;100.00;97724.44;5081265;28;19935;-82
2022/09/18 08:56:23;;;;;;;;;;;;;;;11.69;100.00;97732.47;5062843;28;20015;-82
2022/09/18 08:58:52;;;;;;;;;;;;;;;11.62;100.00;97728.47;5052864;28;19925;-82
2022/09/18 09:01:19;;;;;;;;;;;;;;;11.69;100.00;97729.78;5073573;28;19928;-83
2022/09/18 09:03:52;;;;;;;;;;;;;;;11.48;100.00;97727.47;5057249;28;19925;-82
2022/09/18 09:06:28;;;;;;;;;;;;;;;11.38;100.00;97725.63;5068070;28;20318;-83
2022/09/18 09:09:06;;;;;;;;;;;;;;;11.49;100.00;97742.41;5083585;28;20426;-82
2022/09/18 09:11:38;;;;;;;;;;;;;;;11.49;100.00;97739.75;5067620;28;19951;-83
2022/09/18 09:14:15;;;;;;;;;;;;;;;11.67;100.00;97731.91;5092177;28;19935;-81
2022/09/18 09:16:42;;;;;;;;;;;;;;;11.56;100.00;97741.06;5092314;28;20606;-83
2022/09/18 09:19:15;;;;;;;;;;;;;;;11.64;100.00;97737.81;5088764;28;19924;-82
2022/09/18 09:21:48;;;;;;;;;;;;;;;11.68;100.00;97728.19;5077444;28;20391;-81
2022/09/18 09:24:22;;;;;;;;;;;;;;;11.74;100.00;97732.47;5080152;28;19925;-82
2022/09/18 09:26:49;;;;;;;;;;;;;;;11.80;100.00;97739.41;5074085;28;19951;-84
2022/09/18 09:29:19;;;;;;;;;;;;;;;11.78;100.00;97733.53;5068298;28;20389;-84
2022/09/18 09:31:48;;;;;;;;;;;;;;;11.60;100.00;97742.13;5068250;28;19929;-82
2022/09/18 09:34:18;;;;;;;;;;;;;;;11.78;100.00;97733.53;5066100;28;19924;-82
2022/09/18 09:36:47;;;;;;;;;;;;;;;11.88;100.00;97744.16;5078057;28;19925;-83
2022/09/18 09:39:18;;;;;;;;;;;;;;;11.90;100.00;97734.00;5073938;28;20015;-81
2022/09/18 09:41:49;;;;;;;;;;;;;;;11.82;100.00;97745.25;5077779;28;20018;-83
2022/09/18 09:44:28;;;;;;;;;;;;;;;12.07;100.00;97738.19;5083189;28;19924;-83
2022/09/18 09:47:00;;;;;;;;;;;;;;;12.05;100.00;97743.00;5078672;28;20011;-83
2022/09/18 09:49:27;;;;;;;;;;;;;;;11.98;100.00;97742.50;5055085;28;19935;-83
2022/09/18 09:51:58;;;;;;;;;;;;;;;12.04;100.00;97738.75;5073100;28;19924;-84
2022/09/18 09:54:24;;;;;;;;;;;;;;;12.01;100.00;97736.63;5072665;28;19958;-81
2022/09/18 09:56:54;;;;;;;;;;;;;;;11.93;100.00;97740.69;5076499;28;20010;-83
2022/09/18 09:59:24;;;;;;;;;;;;;;;11.81;100.00;97743.69;5066585;28;20296;-83
2022/09/18 10:01:55;;;;;;;;;;;;;;;11.77;100.00;97736.47;5079977;28;19925;-82
2022/09/18 10:04:27;;;;;;;;;;;;;;;11.81;100.00;97749.03;5083541;28;19985;-83
2022/09/18 10:06:56;;;;;;;;;;;;;;;11.82;100.00;97752.50;5089265;28;20637;-81
2022/09/18 10:09:28;;;;;;;;;;;;;;;11.79;100.00;97745.03;5088778;28;20562;-82
2022/09/18 10:12:02;;;;;;;;;;;;;;;11.89;100.00;97735.06;5091767;28;19924;-82
2022/09/18 10:14:31;;;;;;;;;;;;;;;12.07;100.00;97752.38;5095307;28;19924;-83
2022/09/18 10:16:57;;;;;;;;;;;;;;;12.15;100.00;97748.31;5079735;28;19932;-83
2022/09/18 10:19:29;;;;;;;;;;;;;;;12.26;100.00;97747.97;5087518;28;19924;-83
2022/09/18 10:21:56;;;;;;;;;;;;;;;12.30;100.00;97741.00;5082098;28;19971;-80
2022/09/18 10:24:26;;;;;;;;;;;;;;;12.34;100.00;97744.72;5084393;28;19935;-82
2022/09/18 10:26:54;;;;;;;;;;;;;;;12.35;100.00;97737.47;5069663;28;19940;-82
2022/09/18 10:29:22;;;;;;;;;;;;;;;12.30;100.00;97745.53;5071597;28;20011;-82
2022/09/18 10:31:49;;;;;;;;;;;;;;;12.22;100.00;97741.59;5052537;28;19928;-83
2022/09/18 10:34:31;;;;;;;;;;;;;;;12.25;100.00;97733.00;5068754;28;19925;-83
2022/09/18 10:36:57;;;;;;;;;;;;;;;12.28;100.00;97734.31;5060935;28;19928;-83
2022/09/18 10:39:26;;;;;;;;;;;;;;;12.41;100.00;97731.00;5072573;28;19931;-83
2022/09/18 10:41:56;;;;;;;;;;;;;;;12.60;100.00;97728.44;5069356;28;19932;-82
2022/09/18 10:44:26;;;;;;;;;;;;;;;12.47;100.00;97735.28;5083580;28;19924;-82
2022/09/18 10:46:58;;;;;;;;;;;;;;;12.45;100.00;97716.78;5083979;28;19931;-85
2022/09/18 10:49:27;;;;;;;;;;;;;;;12.39;100.00;97717.91;5079770;28;19928;-83
2022/09/18 10:52:12;;;;;;;;;;;;;;;12.67;100.00;97715.53;5071213;28;20023;-82
2022/09/18 10:54:38;;;;;;;;;;;;;;;12.52;100.00;97727.19;5066627;28;20027;-83
2022/09/18 10:57:24;;;;;;;;;;;;;;;12.61;100.00;97717.47;5073566;28;19925;-82
2022/09/18 10:59:51;;;;;;;;;;;;;;;12.50;100.00;97709.78;5083922;28;19932;-82
2022/09/18 11:02:20;;;;;;;;;;;;;;;12.66;100.00;97714.75;5072291;28;19951;-81
2022/09/18 11:04:47;;;;;;;;;;;;;;;12.56;100.00;97717.53;5070458;28;19924;-84
2022/09/18 11:07:14;;;;;;;;;;;;;;;12.73;100.00;97723.25;5095603;28;19940;-82
2022/09/18 11:09:41;;;;;;;;;;;;;;;12.84;100.00;97722.06;5088029;28;19923;-82
2022/09/18 11:12:14;;;;;;;;;;;;;;;12.86;100.00;97725.28;5083048;28;19924;-84
2022/09/18 11:14:41;;;;;;;;;;;;;;;12.73;100.00;97731.28;5103260;28;19923;-82
2022/09/18 11:17:17;;;;;;;;;;;;;;;12.75;100.00;97729.13;5073263;28;19924;-81
2022/09/18 11:19:48;;;;;;;;;;;;;;;12.59;100.00;97721.50;5087550;28;19955;-83
2022/09/18 11:22:31;;;;;;;;;;;;;;;12.67;100.00;97732.41;5069263;28;19924;-82
2022/09/18 11:25:06;;;;;;;;;;;;;;;12.70;100.00;97723.00;5070444;28;20422;-83
2022/09/18 11:27:43;;;;;;;;;;;;;;;12.77;100.00;97720.81;5069894;28;19925;-85
2022/09/18 11:30:14;;;;;;;;;;;;;;;12.67;100.00;97713.66;5077114;28;19997;-82
2022/09/18 11:32:44;;;;;;;;;;;;;;;12.83;100.00;97707.09;5083455;28;19946;-83
2022/09/18 11:35:14;;;;;;;;;;;;;;;12.75;100.00;97715.72;5074831;28;19928;-83
2022/09/18 11:37:44;;;;;;;;;;;;;;;12.42;100.00;97711.19;5069659;28;19928;-82
2022/09/18 11:40:17;;;;;;;;;;;;;;;12.39;100.00;97704.50;5089946;28;19928;-84
2022/09/18 11:42:44;;;;;;;;;;;;;;;12.78;100.00;97722.44;5072374;28;19924;-82
2022/09/18 11:45:22;;;;;;;;;;;;;;;12.84;100.00;97703.31;5088189;28;19954;-82
2022/09/18 11:47:54;;;;;;;;;;;;;;;12.91;100.00;97703.78;5086982;28;19935;-84
2022/09/18 11:50:22;;;;;;;;;;;;;;;12.70;100.00;97702.38;5071278;28;19928;-82
2022/09/18 11:52:50;;;;;;;;;;;;;;;12.93;100.00;97701.66;5083104;28;19939;-82
2022/09/18 11:55:22;;;;;;;;;;;;;;;13.09;100.00;97680.84;5079197;28;20517;-82
2022/09/18 11:57:50;;;;;;;;;;;;;;;13.09;100.00;97693.50;5070492;28;19975;-82
2022/09/18 12:00:18;;;;;;;;;;;;;;;12.91;100.00;97686.91;5064131;28;19929;-82
2022/09/18 12:02:48;;;;;;;;;;;;;;;12.92;100.00;97688.53;5087440;28;19928;-84
2022/09/18 12:05:20;;;;;;;;;;;;;;;12.91;100.00;97698.44;5084707;28;19924;-81
2022/09/18 12:07:53;;;;;;;;;;;;;;;12.93;100.00;97679.41;5091887;28;19928;-82
2022/09/18 12:10:21;;;;;;;;;;;;;;;12.67;100.00;97686.06;5080161;28;19935;-83
2022/09/18 12:12:50;;;;;;;;;;;;;;;12.87;100.00;97685.91;5084479;28;19954;-82
2022/09/18 12:15:18;;;;;;;;;;;;;;;12.80;100.00;97694.25;5090860;28;19925;-83
2022/09/18 12:17:47;;;;;;;;;;;;;;;12.91;100.00;97677.00;5083608;28;19977;-84
2022/09/18 12:20:19;;;;;;;;;;;;;;;12.93;100.00;97685.56;5068927;28;19935;-81
2022/09/18 12:22:51;;;;;;;;;;;;;;;12.71;100.00;97690.59;5056987;28;20960;-83
2022/09/18 12:25:18;;;;;;;;;;;;;;;12.89;100.00;97689.09;5065160;28;19924;-82
2022/09/18 12:27:48;;;;;;;;;;;;;;;12.87;100.00;97681.31;5068338;28;20350;-82
2022/09/18 12:30:16;;;;;;;;;;;;;;;12.89;100.00;97681.03;5051724;28;19932;-82
2022/09/18 12:33:06;;;;;;;;;;;;;;;12.96;100.00;97674.28;5065805;28;19927;-83
2022/09/18 12:35:40;;;;;;;;;;;;;;;13.04;100.00;97680.09;5044438;28;19925;-81
2022/09/18 12:38:14;;;;;;;;;;;;;;;13.05;100.00;97674.44;5071168;28;19925;-83
2022/09/18 12:40:52;;;;;;;;;;;;;;;12.95;100.00;97677.22;5078813;28;19931;-82
2022/09/18 12:43:27;;;;;;;;;;;;;;;13.06;100.00;97664.53;5072857;28;19928;-81